Time;durP1;ratioP1;P1;durP2;ratioP2;P2;SDS_P1;SDS_P2;PMS_P1;PMS_P2;Temp;Humidity;BMP_temperature;BMP_pressure;BME280_temperature;BME280_humidity;BME280_pressure;Samples;Min_cycle;Max_cycle;Signal;HPM_P1;HPM_P2
2023/01/30 00:01:23;;;;;;;15.70;5.97;;;-4.70;99.90;;;;;;5123763;27;20044;-51
2023/01/30 00:03:49;;;;;;;21.65;6.55;;;-4.90;99.90;;;;;;5121310;27;20077;-53
2023/01/30 00:06:16;;;;;;;18.35;6.30;;;-5.00;99.90;;;;;;5119190;27;20105;-51
2023/01/30 00:08:43;;;;;;;15.88;6.28;;;-5.20;99.90;;;;;;5117144;27;20100;-50
2023/01/30 00:11:11;;;;;;;;;;;-5.20;99.90;;;;;;5118129;27;20442;-51
2023/01/30 00:13:39;;;;;;;20.08;6.75;;;-5.20;99.90;;;;;;5118367;27;19938;-50
2023/01/30 00:16:08;;;;;;;22.92;6.80;;;-5.20;99.90;;;;;;5120388;27;20069;-51
2023/01/30 00:18:36;;;;;;;19.10;6.93;;;-5.30;99.90;;;;;;5120190;27;20039;-51
2023/01/30 00:21:06;;;;;;;21.30;7.20;;;-5.30;99.90;;;;;;5120996;27;20093;-51
2023/01/30 00:23:34;;;;;;;24.02;7.00;;;-5.30;99.90;;;;;;5118458;27;20070;-52
2023/01/30 00:26:01;;;;;;;25.45;7.78;;;-5.20;99.90;;;;;;5121615;27;20108;-50
2023/01/30 00:28:28;;;;;;;20.55;7.13;;;-5.10;99.90;;;;;;5114093;27;20511;-52
2023/01/30 00:30:56;;;;;;;20.20;7.20;;;-5.00;99.90;;;;;;5125630;27;20518;-52
2023/01/30 00:33:24;;;;;;;;;;;-5.00;99.90;;;;;;5120506;27;20446;-51
2023/01/30 00:35:52;;;;;;;20.10;6.20;;;-5.00;99.90;;;;;;5115072;27;19928;-50
2023/01/30 00:38:20;;;;;;;22.13;6.60;;;-5.00;99.90;;;;;;5121899;27;20522;-52
2023/01/30 00:40:47;;;;;;;21.80;7.45;;;-5.00;99.90;;;;;;5146519;27;20495;-51
2023/01/30 00:47:04;;;;;;;21.05;7.25;;;-5.00;99.90;;;;;;5131844;27;20609;-50
2023/01/30 00:49:16;;;;;;;20.65;7.22;;;-5.00;99.90;;;;;;5121430;27;20046;-49
2023/01/30 00:51:43;;;;;;;21.75;6.50;;;-4.90;99.90;;;;;;5120956;27;20044;-50
2023/01/30 00:54:09;;;;;;;25.92;7.03;;;-4.90;99.90;;;;;;5113409;28;20036;-50
2023/01/30 00:56:36;;;;;;;21.10;6.85;;;-4.90;99.90;;;;;;5119263;27;20094;-49
2023/01/30 00:59:03;;;;;;;18.65;6.97;;;-4.90;99.90;;;;;;5128014;27;20037;-50
2023/01/30 01:01:29;;;;;;;16.85;6.95;;;-4.80;99.90;;;;;;5150748;27;20042;-50
2023/01/30 01:03:56;;;;;;;18.80;7.18;;;-4.80;99.90;;;;;;5152565;27;20540;-50
2023/01/30 01:06:23;;;;;;;20.00;8.00;;;-4.90;99.90;;;;;;5132013;27;20416;-49
2023/01/30 01:08:50;;;;;;;22.88;7.05;;;-5.00;99.90;;;;;;5130680;27;20043;-54
2023/01/30 01:11:23;;;;;;;25.05;8.43;;;-5.10;99.90;;;;;;5130545;28;20068;-55
2023/01/30 01:13:58;;;;;;;18.77;7.18;;;-5.30;99.90;;;;;;5132015;27;20039;-53
2023/01/30 01:16:26;;;;;;;22.80;7.35;;;-5.40;99.90;;;;;;5125786;27;20104;-50
2023/01/30 01:18:53;;;;;;;23.38;7.80;;;-5.40;99.90;;;;;;5130470;27;20041;-54
2023/01/30 01:21:21;;;;;;;18.92;7.63;;;-5.50;99.90;;;;;;5130953;27;20046;-53
2023/01/30 01:23:50;;;;;;;19.17;6.63;;;-5.50;99.90;;;;;;5109893;28;20040;-52
2023/01/30 01:26:17;;;;;;;19.88;7.13;;;-5.40;99.90;;;;;;5127832;27;20043;-52
2023/01/30 01:28:44;;;;;;;22.83;7.40;;;-5.30;99.90;;;;;;5130093;28;20039;-53
2023/01/30 01:31:13;;;;;;;24.33;6.70;;;-5.40;99.90;;;;;;5131692;27;20050;-54
2023/01/30 01:33:40;;;;;;;17.17;6.93;;;-5.40;99.90;;;;;;5131231;27;20047;-51
2023/01/30 01:36:07;;;;;;;17.35;6.40;;;-5.40;99.90;;;;;;5134471;27;20564;-50
2023/01/30 01:38:34;;;;;;;16.40;6.47;;;-5.40;99.90;;;;;;5134153;27;20055;-52
2023/01/30 01:41:01;;;;;;;21.15;7.00;;;-5.50;99.90;;;;;;5136332;27;20032;-52
2023/01/30 01:43:33;;;;;;;19.02;5.97;;;-5.50;99.90;;;;;;5130422;27;20116;-51
2023/01/30 01:46:20;;;;;;;15.35;5.78;;;-5.60;99.90;;;;;;5135942;27;20491;-56
2023/01/30 01:48:55;;;;;;;18.60;6.15;;;-5.60;99.90;;;;;;5131094;27;20104;-52
2023/01/30 01:51:29;;;;;;;17.20;5.70;;;-5.60;99.90;;;;;;5135456;27;20043;-51
2023/01/30 01:54:02;;;;;;;17.05;6.57;;;-5.60;99.90;;;;;;5133485;27;20050;-50
2023/01/30 01:56:30;;;;;;;19.02;6.60;;;-5.60;99.90;;;;;;5135794;27;20047;-52
2023/01/30 01:59:07;;;;;;;19.80;7.93;;;-5.50;99.90;;;;;;5129945;27;20167;-51
2023/01/30 02:01:34;;;;;;;21.27;6.93;;;-5.30;99.90;;;;;;5135115;27;20044;-51
2023/01/30 02:04:04;;;;;;;23.58;7.90;;;-5.30;99.90;;;;;;5135082;27;20093;-50
2023/01/30 02:06:31;;;;;;;21.73;7.55;;;-5.20;99.90;;;;;;5132747;27;20055;-51
2023/01/30 02:09:06;;;;;;;22.00;7.78;;;-5.20;99.90;;;;;;5142618;27;20035;-54
2023/01/30 02:11:46;;;;;;;20.92;7.43;;;-5.20;99.90;;;;;;5114502;28;20040;-51
2023/01/30 02:14:14;;;;;;;22.67;8.23;;;-5.20;99.90;;;;;;5114901;27;20123;-53
2023/01/30 02:16:44;;;;;;;21.88;7.75;;;-4.20;99.90;;;;;;5133839;27;20039;-51
2023/01/30 02:19:33;;;;;;;20.73;7.38;;;-5.60;99.90;;;;;;5130966;27;20153;-51
2023/01/30 02:22:38;;;;;;;19.52;6.18;;;-5.70;99.90;;;;;;5133556;27;20039;-53
2023/01/30 02:25:43;;;;;;;20.33;6.10;;;-5.70;99.90;;;;;;5148545;22;20043;-52
2023/01/30 02:28:49;;;;;;;22.58;8.20;;;-5.70;99.90;;;;;;5128499;27;20046;-55
2023/01/30 02:31:27;;;;;;;20.88;7.20;;;-5.60;99.90;;;;;;5126489;27;20043;-55
2023/01/30 02:34:15;;;;;;;21.13;7.22;;;-5.60;99.90;;;;;;5133950;27;20043;-54
2023/01/30 02:37:07;;;;;;;16.77;6.35;;;-5.70;99.90;;;;;;5136983;27;20042;-54
2023/01/30 02:39:59;;;;;;;16.15;6.95;;;-5.80;99.90;;;;;;5136597;27;20046;-53
2023/01/30 02:42:42;;;;;;;16.52;5.40;;;-5.80;99.90;;;;;;5135879;27;20396;-52
2023/01/30 02:45:23;;;;;;;19.88;7.22;;;-5.90;99.90;;;;;;5155388;27;20043;-52
2023/01/30 02:47:58;;;;;;;21.83;6.47;;;-5.60;99.90;;;;;;5157433;27;20034;-53
2023/01/30 02:50:31;;;;;;;19.17;6.45;;;-6.20;99.90;;;;;;5155066;27;20049;-49
2023/01/30 02:52:58;;;;;;;19.30;6.57;;;-6.10;99.90;;;;;;5154417;27;20080;-54
2023/01/30 02:55:28;;;;;;;17.33;6.22;;;-6.00;99.90;;;;;;5154318;27;20043;-54
2023/01/30 02:57:55;;;;;;;21.90;7.22;;;-5.80;99.90;;;;;;5153517;27;20088;-52
2023/01/30 03:00:48;;;;;;;18.48;6.38;;;-5.90;99.90;;;;;;5152717;27;20042;-52
2023/01/30 03:03:25;;;;;;;20.45;6.93;;;-5.90;99.90;;;;;;5119515;27;20440;-52
2023/01/30 03:06:21;;;;;;;22.93;7.33;;;-5.90;99.90;;;;;;5154870;27;20043;-53
2023/01/30 03:09:06;;;;;;;19.13;6.47;;;-6.00;99.90;;;;;;5146494;27;20053;-54
2023/01/30 03:12:02;;;;;;;16.38;6.30;;;-6.00;99.90;;;;;;5135866;27;20125;-53
2023/01/30 03:14:51;;;;;;;21.80;7.25;;;-6.10;99.90;;;;;;5154229;27;20042;-51
2023/01/30 03:17:22;;;;;;;21.83;7.30;;;-6.10;99.90;;;;;;5136546;27;20043;-54
2023/01/30 03:19:52;;;;;;;20.55;8.23;;;-6.00;99.90;;;;;;5154797;27;20049;-50
2023/01/30 03:22:21;;;;;;;18.05;6.97;;;-6.00;99.90;;;;;;5155223;27;20126;-54
2023/01/30 03:24:52;;;;;;;21.98;6.45;;;-6.10;99.90;;;;;;5132262;27;20034;-50
2023/01/30 03:27:20;;;;;;;17.23;6.30;;;-6.10;99.90;;;;;;5143995;27;20538;-51
2023/01/30 03:29:47;;;;;;;14.73;5.35;;;-6.20;99.90;;;;;;5131799;27;20039;-52
2023/01/30 03:32:14;;;;;;;11.20;4.03;;;-6.10;99.90;;;;;;5136409;27;20046;-54
2023/01/30 03:34:41;;;;;;;;;;;-6.10;99.90;;;;;;5156595;27;20046;-56
2023/01/30 03:37:09;;;;;;;13.03;4.00;;;-6.00;99.90;;;;;;5156311;27;20014;-51
2023/01/30 03:39:36;;;;;;;16.23;4.63;;;-6.00;99.90;;;;;;5156753;27;20550;-52
2023/01/30 03:42:06;;;;;;;12.02;3.97;;;-6.00;99.90;;;;;;5155000;27;20034;-52
2023/01/30 03:44:32;;;;;;;12.48;4.30;;;-5.90;99.90;;;;;;5152715;27;20472;-51
2023/01/30 03:46:59;;;;;;;15.38;5.10;;;-5.90;99.90;;;;;;5135733;27;20087;-50
2023/01/30 03:49:27;;;;;;;13.93;5.03;;;-5.90;99.90;;;;;;5132138;27;20051;-52
2023/01/30 03:51:55;;;;;;;12.60;4.50;;;-5.90;99.90;;;;;;5131857;27;20039;-50
2023/01/30 03:54:22;;;;;;;12.02;4.20;;;-5.90;99.90;;;;;;5127072;27;20530;-51
2023/01/30 03:56:49;;;;;;;12.80;4.25;;;-6.00;99.90;;;;;;5135607;27;20050;-52
2023/01/30 03:59:16;;;;;;;15.80;4.43;;;-5.90;99.90;;;;;;5139928;27;20042;-53
2023/01/30 04:01:49;;;;;;;10.57;3.95;;;-5.90;99.90;;;;;;5131763;27;20050;-52
2023/01/30 04:04:16;;;;;;;16.42;4.65;;;-5.90;99.90;;;;;;5134503;27;20392;-52
2023/01/30 04:06:43;;;;;;;14.90;4.53;;;-5.80;99.90;;;;;;5135300;27;20043;-50
2023/01/30 04:09:10;;;;;;;14.32;4.57;;;-5.80;99.90;;;;;;5134991;27;20042;-55
2023/01/30 04:11:42;;;;;;;16.90;4.82;;;-5.80;99.90;;;;;;5141903;27;20086;-53
2023/01/30 04:14:08;;;;;;;10.70;4.65;;;-5.70;99.90;;;;;;5163918;27;20031;-52
2023/01/30 04:16:45;;;;;;;16.20;5.63;;;-5.80;99.90;;;;;;5152279;27;20053;-52
2023/01/30 04:19:30;;;;;;;14.10;5.35;;;-5.80;99.90;;;;;;5153938;27;20556;-54
2023/01/30 04:21:57;;;;;;;15.23;5.47;;;-5.80;99.90;;;;;;5145162;27;20039;-54
2023/01/30 04:24:25;;;;;;;15.80;5.38;;;-5.80;99.90;;;;;;5126593;27;20066;-56
2023/01/30 04:26:52;;;;;;;13.57;6.03;;;-5.90;99.90;;;;;;5137128;27;20042;-54
2023/01/30 04:29:18;;;;;;;11.93;4.43;;;-6.00;99.90;;;;;;5136786;27;20131;-50
2023/01/30 04:31:49;;;;;;;17.40;5.18;;;-6.00;99.90;;;;;;5150867;27;20050;-52
2023/01/30 04:34:21;;;;;;;13.20;4.47;;;-6.10;99.90;;;;;;5153837;27;20494;-52
2023/01/30 04:36:48;;;;;;;12.75;5.07;;;-6.20;99.90;;;;;;5129466;27;20431;-54
2023/01/30 04:39:16;;;;;;;17.17;5.85;;;-6.20;99.90;;;;;;5135084;27;20570;-50
2023/01/30 04:41:42;;;;;;;16.27;6.43;;;-5.90;99.90;;;;;;5132796;27;20046;-53
2023/01/30 04:44:09;;;;;;;21.00;6.25;;;-6.10;99.90;;;;;;5134545;27;20053;-54
2023/01/30 04:46:56;;;;;;;19.25;6.55;;;-6.10;99.90;;;;;;5160120;27;20495;-52
2023/01/30 04:49:23;;;;;;;14.52;5.28;;;-6.10;99.90;;;;;;5154406;27;20033;-51
2023/01/30 04:51:50;;;;;;;18.30;5.78;;;-6.10;99.90;;;;;;5151396;27;20046;-52
2023/01/30 04:54:17;;;;;;;16.27;5.82;;;-6.10;99.90;;;;;;5152008;27;20468;-50
2023/01/30 04:56:43;;;;;;;18.05;5.53;;;-6.10;99.90;;;;;;5156645;27;20039;-49
2023/01/30 04:59:10;;;;;;;16.77;6.13;;;-6.10;99.90;;;;;;5134255;27;20411;-53
2023/01/30 05:01:41;;;;;;;14.07;5.03;;;-6.10;99.90;;;;;;5149163;27;20039;-56
2023/01/30 05:04:08;;;;;;;15.50;4.80;;;-6.10;99.90;;;;;;5141022;27;20043;-53
2023/01/30 05:06:35;;;;;;;13.93;4.53;;;-6.00;99.90;;;;;;5143901;27;20062;-52
2023/01/30 05:09:03;;;;;;;;;;;-6.20;99.90;;;;;;5164968;27;20038;-53
2023/01/30 05:11:31;;;;;;;14.17;4.93;;;-6.10;99.90;;;;;;5149881;27;19919;-56
2023/01/30 05:13:58;;;;;;;16.52;5.97;;;-6.00;99.90;;;;;;5141156;27;20639;-51
2023/01/30 05:16:25;;;;;;;18.35;4.93;;;-5.90;99.90;;;;;;5140283;27;20051;-54
2023/01/30 05:18:52;;;;;;;10.38;4.38;;;-5.90;99.90;;;;;;5144678;27;20038;-52
2023/01/30 05:21:26;;;;;;;15.15;4.72;;;-5.80;99.90;;;;;;5151026;27;20087;-56
2023/01/30 05:23:54;;;;;;;12.98;4.07;;;-6.00;99.90;;;;;;5135957;27;20114;-52
2023/01/30 05:26:22;;;;;;;18.40;4.80;;;-6.10;99.90;;;;;;5143838;27;20045;-51
2023/01/30 05:28:53;;;;;;;11.43;5.00;;;-6.10;99.90;;;;;;5150569;27;20039;-53
2023/01/30 05:31:20;;;;;;;13.95;5.38;;;-6.00;99.90;;;;;;5145072;27;20096;-53
2023/01/30 05:33:49;;;;;;;17.38;5.50;;;-5.90;99.90;;;;;;5145939;27;20475;-52
2023/01/30 05:36:17;;;;;;;23.90;8.27;;;-5.80;99.90;;;;;;5159884;27;20035;-51
2023/01/30 05:38:45;;;;;;;18.15;6.10;;;-5.70;99.90;;;;;;5152000;27;20067;-55
2023/01/30 05:41:13;;;;;;;49.40;14.65;;;-5.60;99.90;;;;;;5127647;27;20514;-51
2023/01/30 05:43:40;;;;;;;61.03;17.83;;;-5.70;99.90;;;;;;5172163;27;20057;-52
2023/01/30 05:46:08;;;;;;;;;;;-5.60;99.90;;;;;;5155033;27;20074;-54
2023/01/30 05:48:35;;;;;;;15.10;6.28;;;-5.60;99.90;;;;;;5142921;27;19923;-55
2023/01/30 05:51:02;;;;;;;12.32;4.28;;;-5.60;99.90;;;;;;5148499;27;20517;-52
2023/01/30 05:53:33;;;;;;;20.83;6.05;;;-5.80;99.90;;;;;;5146292;27;20394;-54
2023/01/30 05:56:04;;;;;;;23.50;6.68;;;-6.00;99.90;;;;;;5152197;27;20398;-53
2023/01/30 05:58:31;;;;;;;25.70;7.53;;;-6.00;99.90;;;;;;5146037;27;20042;-53
2023/01/30 06:01:02;;;;;;;18.83;7.05;;;-6.00;99.90;;;;;;5157242;27;20042;-56
2023/01/30 06:03:32;;;;;;;23.15;7.88;;;-5.90;99.90;;;;;;5135670;27;20042;-55
2023/01/30 06:06:00;;;;;;;23.02;8.35;;;-5.80;99.90;;;;;;5134481;27;20135;-53
2023/01/30 06:08:27;;;;;;;20.88;7.25;;;-5.80;99.90;;;;;;5132772;27;20080;-53
2023/01/30 06:10:58;;;;;;;;;;;-5.70;99.90;;;;;;5140821;27;20047;-53
2023/01/30 06:13:25;;;;;;;20.92;7.18;;;-5.60;99.90;;;;;;5114380;27;20009;-53
2023/01/30 06:15:52;;;;;;;28.35;8.82;;;-5.50;99.90;;;;;;5139296;27;20071;-53
2023/01/30 06:18:18;;;;;;;;;;;-5.60;99.90;;;;;;5145505;27;20451;-51
2023/01/30 06:20:49;;;;;;;21.13;7.90;;;-5.70;99.90;;;;;;5144940;27;20376;-53
2023/01/30 06:23:17;;;;;;;25.50;8.93;;;-5.70;99.90;;;;;;5143811;27;20064;-55
2023/01/30 06:25:44;;;;;;;;;;;-5.70;99.90;;;;;;5145730;27;20035;-54
2023/01/30 06:28:11;;;;;;;21.63;7.93;;;-5.70;99.90;;;;;;5144591;27;20691;-55
2023/01/30 06:30:38;;;;;;;;;;;-5.70;99.90;;;;;;5145078;27;20103;-55
2023/01/30 06:33:05;;;;;;;35.20;12.52;;;-5.70;99.90;;;;;;5142950;27;19923;-55
2023/01/30 06:35:32;;;;;;;;;;;-5.00;99.90;;;;;;5144673;27;20047;-54
2023/01/30 06:37:59;;;;;;;23.77;8.43;;;-5.60;99.90;;;;;;5143030;27;19974;-55
2023/01/30 06:40:26;;;;;;;20.25;6.90;;;-5.60;99.90;;;;;;5152308;27;20487;-51
2023/01/30 06:42:52;;;;;;;29.30;7.75;;;-5.50;99.90;;;;;;5149633;27;20046;-54
2023/01/30 06:45:19;;;;;;;19.27;7.93;;;-5.70;99.90;;;;;;5155268;27;20058;-55
2023/01/30 06:47:48;;;;;;;21.65;6.72;;;-5.80;99.90;;;;;;5148821;27;20044;-52
2023/01/30 06:50:17;;;;;;;21.75;6.80;;;-5.90;99.90;;;;;;5156056;27;20083;-52
2023/01/30 06:52:45;;;;;;;15.07;6.43;;;-5.80;99.90;;;;;;5154707;27;20043;-53
2023/01/30 06:55:17;;;;;;;24.90;7.70;;;-5.70;99.90;;;;;;5156463;27;20042;-54
2023/01/30 06:57:44;;;;;;;22.98;7.35;;;-5.70;99.90;;;;;;5160210;27;20042;-53
2023/01/30 07:00:19;;;;;;;23.02;7.65;;;-5.80;99.90;;;;;;5154831;27;20046;-56
2023/01/30 07:02:46;;;;;;;21.02;7.35;;;-5.90;99.90;;;;;;5154650;27;20507;-54
2023/01/30 07:05:13;;;;;;;;;;;-5.90;99.90;;;;;;5140314;27;20045;-55
2023/01/30 07:07:39;;;;;;;19.40;8.38;;;-5.80;99.90;;;;;;5149185;27;20319;-53
2023/01/30 07:10:07;;;;;;;25.45;8.35;;;-5.70;99.90;;;;;;5154690;27;20054;-52
2023/01/30 07:12:35;;;;;;;24.88;8.98;;;-5.50;99.90;;;;;;5154496;27;20055;-55
2023/01/30 07:15:03;;;;;;;31.27;10.00;;;-5.50;99.90;;;;;;5158824;27;20049;-54
2023/01/30 07:17:30;;;;;;;27.48;9.20;;;-5.40;99.90;;;;;;5148978;27;20092;-53
2023/01/30 07:19:57;;;;;;;30.80;10.73;;;-5.20;99.90;;;;;;5154546;27;20048;-55
2023/01/30 07:22:24;;;;;;;40.10;14.07;;;-5.00;99.90;;;;;;5160858;27;20517;-51
2023/01/30 07:24:51;;;;;;;30.60;11.15;;;-4.70;99.90;;;;;;5153720;27;20079;-54
2023/01/30 07:27:17;;;;;;;30.27;9.00;;;-4.80;99.90;;;;;;5154277;27;20380;-53
2023/01/30 07:29:44;;;;;;;26.13;9.15;;;-4.80;99.90;;;;;;5157574;27;20458;-54
2023/01/30 07:32:17;;;;;;;15.00;7.40;;;-4.70;99.90;;;;;;5156634;27;20038;-53
2023/01/30 07:34:47;;;;;;;23.42;7.65;;;-4.80;99.90;;;;;;5154439;27;20043;-54
2023/01/30 07:37:14;;;;;;;18.50;7.88;;;-4.90;99.90;;;;;;5154744;27;20042;-52
2023/01/30 07:39:41;;;;;;;19.98;8.13;;;-5.00;99.90;;;;;;5143517;27;20063;-53
2023/01/30 07:42:08;;;;;;;22.80;8.18;;;-5.10;99.90;;;;;;5153826;27;20049;-56
2023/01/30 07:44:34;;;;;;;33.47;9.45;;;-5.00;99.90;;;;;;5154032;27;20103;-54
2023/01/30 07:47:01;;;;;;;22.75;7.50;;;-5.00;99.90;;;;;;5154107;27;20099;-54
2023/01/30 07:49:28;;;;;;;46.63;19.88;;;-5.00;99.90;;;;;;5148320;27;20050;-52
2023/01/30 07:51:55;;;;;;;36.72;14.63;;;-5.10;99.90;;;;;;5153258;27;20569;-55
2023/01/30 07:54:22;;;;;;;34.25;12.85;;;-5.00;99.90;;;;;;5159245;27;20050;-54
2023/01/30 07:56:48;;;;;;;24.75;9.80;;;-4.90;99.90;;;;;;5135285;27;20118;-52
2023/01/30 07:59:15;;;;;;;31.02;12.52;;;-4.80;99.90;;;;;;5153523;27;20046;-54
2023/01/30 08:01:42;;;;;;;34.45;13.57;;;-4.80;99.90;;;;;;5151898;27;20042;-51
2023/01/30 08:04:09;;;;;;;34.45;14.35;;;-4.70;99.90;;;;;;5163970;27;20034;-57
2023/01/30 08:06:37;;;;;;;30.02;12.98;;;-4.60;99.90;;;;;;5174569;27;20038;-55
2023/01/30 08:09:06;;;;;;;44.88;14.68;;;-4.50;99.90;;;;;;5174779;27;20046;-53
2023/01/30 08:11:33;;;;;;;29.70;13.25;;;-4.30;99.90;;;;;;5145052;27;20042;-53
2023/01/30 08:14:00;;;;;;;35.15;10.88;;;-4.20;99.90;;;;;;5169752;27;20050;-56
2023/01/30 08:16:27;;;;;;;24.95;10.20;;;-4.00;99.90;;;;;;5174490;27;20050;-53
2023/01/30 08:18:54;;;;;;;29.38;11.60;;;-3.90;99.90;;;;;;5174272;27;20083;-55
2023/01/30 08:21:20;;;;;;;23.90;8.50;;;-4.10;99.90;;;;;;5160193;27;20379;-53
2023/01/30 08:23:47;;;;;;;26.98;9.35;;;-4.00;99.90;;;;;;5174557;27;20046;-53
2023/01/30 08:26:14;;;;;;;20.83;7.78;;;-4.00;99.90;;;;;;5150671;22;20036;-56
2023/01/30 08:28:41;;;;;;;26.85;10.27;;;-4.00;99.90;;;;;;5129111;27;20043;-57
2023/01/30 08:31:12;;;;;;;28.23;10.52;;;-4.00;99.90;;;;;;5131753;27;20474;-56
2023/01/30 08:33:38;;;;;;;20.35;9.82;;;-3.90;99.90;;;;;;5129382;27;20047;-57
2023/01/30 08:36:06;;;;;;;25.58;10.07;;;-3.80;99.90;;;;;;5098370;28;20036;-52
2023/01/30 08:38:32;;;;;;;33.13;11.45;;;-3.80;99.90;;;;;;5091181;28;20089;-54
2023/01/30 08:40:59;;;;;;;28.23;11.77;;;-3.80;99.90;;;;;;5091392;28;20476;-53
2023/01/30 08:43:26;;;;;;;;;;;-3.80;99.90;;;;;;5099274;28;20050;-56
2023/01/30 08:45:54;;;;;;;39.25;12.50;;;-3.70;99.90;;;;;;5091444;28;19924;-55
2023/01/30 08:48:21;;;;;;;29.50;11.27;;;-3.60;99.90;;;;;;5091244;28;20072;-55
2023/01/30 08:50:53;;;;;;;26.77;10.73;;;-3.40;99.90;;;;;;5072945;28;20052;-55
2023/01/30 08:53:20;;;;;;;28.83;10.32;;;-3.30;99.90;;;;;;5090403;28;20044;-57
2023/01/30 08:55:50;;;;;;;22.45;9.98;;;-3.20;99.90;;;;;;5091304;28;20204;-53
2023/01/30 08:58:18;;;;;;;32.03;11.10;;;-3.30;99.90;;;;;;5092997;28;20044;-56
2023/01/30 09:00:45;;;;;;;25.73;10.52;;;-2.90;99.90;;;;;;5091087;28;20044;-52
2023/01/30 09:03:14;;;;;;;30.05;10.10;;;-2.60;99.90;;;;;;5089740;28;20040;-54
2023/01/30 09:05:41;;;;;;;31.35;11.32;;;-2.40;99.90;;;;;;5090364;28;20606;-56
2023/01/30 09:08:08;;;;;;;32.25;11.02;;;-2.20;99.90;;;;;;5092083;28;20512;-55
2023/01/30 09:10:35;;;;;;;32.42;10.50;;;-2.20;99.90;;;;;;5103241;28;20085;-57
2023/01/30 09:13:04;;;;;;;28.30;11.45;;;-2.30;99.90;;;;;;5110957;28;20039;-57
2023/01/30 09:15:31;;;;;;;23.70;11.05;;;-2.40;99.90;;;;;;5102999;28;20542;-56
2023/01/30 09:17:58;;;;;;;26.52;11.45;;;-2.30;99.90;;;;;;5090997;28;20040;-52
2023/01/30 09:20:25;;;;;;;23.20;10.77;;;-2.20;99.90;;;;;;5091251;28;20489;-55
2023/01/30 09:22:52;;;;;;;36.13;12.32;;;-2.10;99.90;;;;;;5090359;28;20035;-56
2023/01/30 09:25:19;;;;;;;27.35;10.93;;;-2.00;99.90;;;;;;5095758;28;20106;-55
2023/01/30 09:27:49;;;;;;;31.00;11.60;;;-1.90;99.90;;;;;;5091275;28;20040;-55
2023/01/30 09:30:16;;;;;;;26.45;11.13;;;-1.70;99.90;;;;;;5090933;28;20454;-57
2023/01/30 09:32:44;;;;;;;26.75;11.48;;;-1.70;99.90;;;;;;5090760;28;20055;-54
2023/01/30 09:35:10;;;;;;;25.00;10.55;;;-1.70;99.90;;;;;;5094825;28;20048;-55
2023/01/30 09:37:37;;;;;;;27.48;11.23;;;-1.80;99.90;;;;;;5090791;28;20094;-55
2023/01/30 09:40:05;;;;;;;28.83;9.65;;;-1.70;99.90;;;;;;5089578;28;20040;-54
2023/01/30 09:42:52;;;;;;;30.42;11.23;;;-1.60;99.90;;;;;;5089905;28;20060;-54
2023/01/30 09:45:27;;;;;;;29.42;11.23;;;-1.40;99.90;;;;;;5089781;28;20055;-53
2023/01/30 09:47:57;;;;;;;29.83;12.13;;;-1.30;99.90;;;;;;5089836;28;20044;-57
2023/01/30 09:50:59;;;;;;;27.25;11.02;;;-1.20;99.90;;;;;;5091162;28;20052;-56
2023/01/30 09:53:49;;;;;;;24.17;9.75;;;-1.20;99.90;;;;;;5093341;28;20047;-55
2023/01/30 09:56:15;;;;;;;24.55;10.07;;;-1.20;99.90;;;;;;5094579;28;20037;-58
2023/01/30 09:58:53;;;;;;;17.50;7.97;;;-1.00;99.90;;;;;;5094534;28;20055;-52
2023/01/30 10:01:31;;;;;;;26.90;10.65;;;-0.90;99.90;;;;;;5096343;28;20074;-54
2023/01/30 10:04:19;;;;;;;33.83;11.25;;;-0.90;99.90;;;;;;5100030;28;20438;-55
2023/01/30 10:06:58;;;;;;;19.03;8.33;;;-0.90;99.90;;;;;;5094820;28;20047;-53
2023/01/30 10:09:24;;;;;;;31.85;10.73;;;-0.90;99.90;;;;;;5094686;28;20040;-55
2023/01/30 10:12:25;;;;;;;19.25;8.88;;;-0.80;99.90;;;;;;5096119;28;20043;-52
2023/01/30 10:15:02;;;;;;;24.17;10.73;;;-0.80;99.90;;;;;;5109130;28;20047;-54
2023/01/30 10:17:51;;;;;;;32.55;10.48;;;-0.60;99.90;;;;;;5114725;28;20107;-53
2023/01/30 10:20:47;;;;;;;29.88;10.80;;;-0.50;99.90;;;;;;5106806;28;20040;-53
2023/01/30 10:23:27;;;;;;;19.25;9.27;;;-0.30;99.90;;;;;;5093674;28;20052;-53
2023/01/30 10:26:00;;;;;;;24.92;10.48;;;-0.30;99.90;;;;;;5093979;28;20040;-52
2023/01/30 10:28:51;;;;;;;25.98;10.80;;;-0.40;99.90;;;;;;5095476;28;20114;-55
2023/01/30 10:31:46;;;;;;;25.13;10.65;;;-0.40;99.90;;;;;;5093908;28;20044;-57
2023/01/30 10:34:30;;;;;;;30.60;10.63;;;-0.70;99.90;;;;;;5094654;28;20048;-50
2023/01/30 10:37:08;;;;;;;27.27;10.38;;;-1.00;99.90;;;;;;5093984;28;20374;-55
2023/01/30 10:40:00;;;;;;;33.97;11.32;;;-1.20;99.90;;;;;;5093016;28;20538;-52
2023/01/30 10:42:33;;;;;;;29.05;10.55;;;-1.20;99.90;;;;;;5096155;28;20582;-56
2023/01/30 10:45:10;;;;;;;28.38;10.95;;;-1.20;99.90;;;;;;5094626;28;20039;-56
2023/01/30 10:48:18;;;;;;;28.63;11.48;;;-1.30;99.90;;;;;;5093928;28;20111;-52
2023/01/30 10:50:54;;;;;;;23.33;9.85;;;-1.20;99.90;;;;;;5081129;28;20052;-57
2023/01/30 10:53:27;;;;;;;25.75;10.52;;;-1.10;99.90;;;;;;5103559;28;20086;-53
2023/01/30 10:56:10;;;;;;;25.13;9.48;;;-0.90;99.90;;;;;;5114331;28;20039;-53
2023/01/30 10:58:45;;;;;;;27.95;10.38;;;-0.90;99.90;;;;;;5113253;28;20071;-55
2023/01/30 11:01:27;;;;;;;29.33;10.02;;;-0.80;99.90;;;;;;5098250;28;20098;-54
2023/01/30 11:04:01;;;;;;;23.13;9.52;;;-0.90;99.90;;;;;;5093165;28;20044;-56
2023/01/30 11:06:30;;;;;;;30.63;10.95;;;-0.60;99.90;;;;;;5093234;28;20040;-56
2023/01/30 11:08:57;;;;;;;24.83;9.77;;;-0.40;99.90;;;;;;5098130;28;20491;-57
2023/01/30 11:11:39;;;;;;;35.65;9.45;;;-0.30;99.90;;;;;;5092845;28;20121;-56
2023/01/30 11:14:09;;;;;;;34.35;10.13;;;-0.30;99.90;;;;;;5093166;28;20044;-54
2023/01/30 11:16:49;;;;;;;24.73;10.23;;;-0.20;99.90;;;;;;5093226;28;20520;-55
2023/01/30 11:19:20;;;;;;;25.15;9.25;;;-0.20;99.90;;;;;;5097540;28;20773;-54
2023/01/30 11:21:59;;;;;;;25.10;9.82;;;-0.20;99.90;;;;;;5092706;28;20040;-52
2023/01/30 11:24:36;;;;;;;23.98;9.25;;;-0.10;99.90;;;;;;5092006;28;20101;-55
2023/01/30 11:27:26;;;;;;;24.95;9.75;;;-0.10;99.90;;;;;;5093048;28;20044;-53
2023/01/30 11:30:15;;;;;;;24.50;9.27;;;0.10;99.90;;;;;;5092553;28;20094;-56
2023/01/30 11:32:46;;;;;;;34.72;9.05;;;0.20;99.90;;;;;;5091970;28;20119;-56
2023/01/30 11:35:13;;;;;;;25.92;9.20;;;0.40;99.90;;;;;;5092818;28;20043;-54
2023/01/30 11:37:41;;;;;;;23.05;8.43;;;0.50;99.90;;;;;;5096287;28;20128;-50
2023/01/30 11:40:27;;;;;;;27.33;9.35;;;0.50;99.90;;;;;;5104543;28;20519;-56
2023/01/30 11:43:09;;;;;;;23.92;8.93;;;0.60;99.90;;;;;;5111864;28;20044;-53
2023/01/30 11:45:40;;;;;;;31.75;8.98;;;0.60;99.90;;;;;;5108860;28;20031;-56
2023/01/30 11:48:15;;;;;;;25.80;8.85;;;0.70;99.90;;;;;;5093772;28;20392;-52
2023/01/30 11:51:04;;;;;;;21.10;8.88;;;0.70;99.90;;;;;;5092194;28;20129;-52
2023/01/30 11:54:04;;;;;;;20.17;7.70;;;0.70;99.90;;;;;;5092433;28;20040;-50
2023/01/30 11:56:41;;;;;;;22.45;8.95;;;0.70;99.90;;;;;;5072853;28;20063;-53
2023/01/30 11:59:38;;;;;;;16.50;6.45;;;0.80;99.90;;;;;;5092495;28;20530;-52
2023/01/30 12:02:15;;;;;;;22.50;9.00;;;0.90;99.90;;;;;;5091970;28;20036;-51
2023/01/30 12:04:44;;;;;;;25.35;8.32;;;1.00;99.90;;;;;;5075263;28;20044;-50
2023/01/30 12:07:20;;;;;;;25.88;9.60;;;1.20;99.90;;;;;;5109399;28;20031;-54
2023/01/30 12:09:49;;;;;;;27.30;8.50;;;1.10;99.90;;;;;;5111946;28;20066;-53
2023/01/30 12:12:33;;;;;;;21.05;8.93;;;1.00;99.90;;;;;;5112208;28;20085;-54
2023/01/30 12:15:17;;;;;;;26.23;9.10;;;1.20;99.90;;;;;;5101335;28;20553;-57
2023/01/30 12:18:03;;;;;;;24.98;8.48;;;1.10;99.90;;;;;;5091793;28;20075;-54
2023/01/30 12:20:45;;;;;;;16.60;7.03;;;1.10;99.90;;;;;;5092078;28;20078;-53
2023/01/30 12:23:30;;;;;;;24.42;7.97;;;1.30;99.90;;;;;;5099745;28;20070;-52
2023/01/30 12:25:56;;;;;;;25.92;8.32;;;1.20;99.90;;;;;;5107123;28;20040;-49
2023/01/30 12:28:40;;;;;;;23.23;8.73;;;1.40;99.90;;;;;;5112199;28;20036;-53
2023/01/30 12:31:17;;;;;;;20.55;8.80;;;1.30;99.90;;;;;;5100846;28;20546;-55
2023/01/30 12:33:44;;;;;;;15.38;6.15;;;1.40;99.90;;;;;;5105160;28;20089;-53
2023/01/30 12:36:29;;;;;;;23.88;8.93;;;1.40;99.90;;;;;;5111804;28;20080;-57
2023/01/30 12:39:17;;;;;;;24.20;8.05;;;1.40;99.90;;;;;;5091876;28;20035;-52
2023/01/30 12:42:14;;;;;;;30.15;9.82;;;1.50;99.90;;;;;;5090497;28;20410;-53
2023/01/30 12:44:56;;;;;;;23.17;9.55;;;1.70;99.90;;;;;;5091286;28;20093;-53
2023/01/30 12:47:35;;;;;;;20.13;8.00;;;1.90;99.90;;;;;;5091370;28;20553;-53
2023/01/30 12:50:13;;;;;;;20.35;8.35;;;2.20;99.90;;;;;;5090693;28;20455;-55
2023/01/30 12:52:44;;;;;;;19.98;8.30;;;2.60;99.90;;;;;;5090188;28;20047;-53
2023/01/30 12:55:43;;;;;;;19.73;7.32;;;2.70;99.90;;;;;;5093190;28;20081;-54
2023/01/30 12:58:13;;;;;;;19.40;7.53;;;2.80;99.90;;;;;;5091430;28;20078;-52
2023/01/30 13:01:04;;;;;;;16.80;7.30;;;3.00;99.90;;;;;;5090026;28;20390;-53
2023/01/30 13:03:57;;;;;;;21.08;6.97;;;3.20;99.90;;;;;;5094072;28;20066;-52
2023/01/30 13:06:39;;;;;;;20.42;9.02;;;3.40;99.90;;;;;;5103236;28;20070;-53
2023/01/30 13:09:31;;;;;;;28.55;9.27;;;3.50;99.90;;;;;;5112163;28;20222;-51